createdAt,value
2018-12-21T00:00:27.417Z,1.73
2018-12-21T00:02:56.233Z,2.23
2018-12-21T00:05:25.012Z,1.90
2018-12-21T00:07:53.637Z,2.23
2018-12-21T00:10:22.410Z,1.93
2018-12-21T00:12:57.241Z,2.60
2018-12-21T00:15:33.245Z,2.00
2018-12-21T00:20:58.019Z,2.17
2018-12-21T00:23:27.733Z,2.10
2018-12-21T00:25:56.163Z,2.37
2018-12-21T00:28:24.635Z,2.20
2018-12-21T00:30:58.848Z,2.13
2018-12-21T00:33:32.833Z,2.10
2018-12-21T00:36:07.738Z,1.50
2018-12-21T00:38:41.854Z,3.77
2018-12-21T00:41:14.399Z,1.77
2018-12-21T00:43:52.999Z,2.03
2018-12-21T00:46:28.109Z,3.70
2018-12-21T00:48:56.108Z,2.00
2018-12-21T00:51:30.164Z,1.50
2018-12-21T00:53:54.131Z,2.40
2018-12-21T00:56:21.868Z,2.33
2018-12-21T00:58:49.638Z,2.30
2018-12-21T01:01:19.018Z,2.40
2018-12-21T01:03:46.806Z,1.53
2018-12-21T01:06:15.018Z,2.73
2018-12-21T01:08:43.273Z,1.43
2018-12-21T01:11:11.109Z,1.80
2018-12-21T01:13:39.065Z,1.80
2018-12-21T01:16:09.775Z,1.83
2018-12-21T01:18:37.449Z,1.67
2018-12-21T01:21:06.548Z,1.90
2018-12-21T01:23:35.405Z,1.57
2018-12-21T01:26:07.538Z,1.80
2018-12-21T01:28:35.360Z,2.27
2018-12-21T01:31:05.360Z,2.57
2018-12-21T01:33:33.725Z,3.47
2018-12-21T01:36:01.651Z,1.43
2018-12-21T01:38:29.421Z,1.90
2018-12-21T01:40:57.268Z,1.73
2018-12-21T01:43:25.130Z,1.70
2018-12-21T01:45:52.932Z,2.57
2018-12-21T01:48:20.716Z,2.20
2018-12-21T01:50:48.632Z,2.50
2018-12-21T01:53:16.623Z,1.40
2018-12-21T01:55:44.931Z,1.60
2018-12-21T01:58:13.117Z,1.40
2018-12-21T02:00:43.200Z,1.50
2018-12-21T02:03:10.873Z,1.80
2018-12-21T02:05:38.810Z,2.00
2018-12-21T02:08:08.831Z,1.60
2018-12-21T02:10:36.775Z,1.40
2018-12-21T02:13:04.751Z,1.07
2018-12-21T02:15:32.713Z,2.40
2018-12-21T02:18:00.563Z,1.47
2018-12-21T02:20:29.381Z,1.20
2018-12-21T02:22:57.448Z,1.47
2018-12-21T02:25:26.073Z,1.70
2018-12-21T02:27:53.821Z,1.77
2018-12-21T02:30:21.970Z,1.57
2018-12-21T02:32:49.716Z,1.90
2018-12-21T02:35:17.957Z,1.20
2018-12-21T02:37:45.712Z,1.63
2018-12-21T02:40:14.468Z,1.40
2018-12-21T02:42:43.313Z,1.37
2018-12-21T02:45:13.791Z,1.50
2018-12-21T02:47:42.226Z,1.40
2018-12-21T02:50:11.379Z,1.60
2018-12-21T02:52:39.217Z,1.67
2018-12-21T02:55:07.200Z,1.77
2018-12-21T02:57:35.199Z,2.07
2018-12-21T03:00:12.817Z,1.73
2018-12-21T03:02:41.284Z,1.43
2018-12-21T03:05:09.102Z,2.07
2018-12-21T03:07:37.138Z,1.23
2018-12-21T03:10:06.875Z,1.30
2018-12-21T03:12:34.870Z,1.30
2018-12-21T03:15:07.747Z,1.30
2018-12-21T03:17:37.299Z,1.20
2018-12-21T03:20:07.553Z,1.53
2018-12-21T03:22:36.025Z,1.80
2018-12-21T03:25:04.386Z,1.60
2018-12-21T03:27:32.254Z,2.47
2018-12-21T03:30:00.184Z,1.07
2018-12-21T03:32:28.326Z,1.63
2018-12-21T03:34:56.138Z,1.50
2018-12-21T03:37:23.952Z,1.63
2018-12-21T03:39:51.871Z,2.10
2018-12-21T03:42:20.057Z,2.17
2018-12-21T03:44:48.256Z,2.03
2018-12-21T03:47:16.257Z,2.10
2018-12-21T03:49:44.104Z,2.13
2018-12-21T03:52:11.845Z,1.43
2018-12-21T03:54:39.598Z,2.00
2018-12-21T03:57:07.401Z,1.10
2018-12-21T03:59:35.258Z,1.23
2018-12-21T04:02:04.206Z,1.20
2018-12-21T04:04:32.403Z,1.40
2018-12-21T04:07:00.248Z,1.80
2018-12-21T04:09:28.429Z,1.17
2018-12-21T04:11:56.476Z,1.30
2018-12-21T04:14:24.595Z,1.20
2018-12-21T04:16:52.556Z,1.20
2018-12-21T04:19:20.416Z,1.20
2018-12-21T04:21:48.237Z,1.47
2018-12-21T04:24:16.258Z,1.67
2018-12-21T04:26:44.481Z,1.60
2018-12-21T04:29:12.216Z,1.60
2018-12-21T04:31:40.030Z,1.30
2018-12-21T04:34:09.320Z,1.40
2018-12-21T04:36:37.152Z,1.20
2018-12-21T04:39:06.172Z,1.23
2018-12-21T04:41:34.135Z,1.27
2018-12-21T04:44:02.594Z,1.43
2018-12-21T04:46:30.559Z,1.33
2018-12-21T04:58:09.498Z,1.77
2018-12-21T05:00:37.325Z,1.77
2018-12-21T05:03:05.487Z,1.30
2018-12-21T05:05:33.459Z,1.07
2018-12-21T05:08:02.359Z,1.20
2018-12-21T05:10:31.379Z,1.37
2018-12-21T05:12:59.934Z,1.27
2018-12-21T05:15:29.135Z,1.30
2018-12-21T05:18:05.356Z,1.50
2018-12-21T05:20:33.966Z,1.23
2018-12-21T05:23:02.182Z,1.40
2018-12-21T05:25:30.520Z,1.10
2018-12-21T05:27:58.421Z,1.30
2018-12-21T05:30:26.767Z,1.17
2018-12-21T05:33:06.656Z,1.10
2018-12-21T05:35:34.663Z,1.53
2018-12-21T05:38:04.138Z,1.10
2018-12-21T05:40:40.574Z,0.90
2018-12-21T05:43:09.293Z,0.93
2018-12-21T05:45:40.809Z,1.03
2018-12-21T05:48:15.675Z,0.97
2018-12-21T05:50:45.808Z,1.07
2018-12-21T05:53:16.165Z,0.90
2018-12-21T05:55:44.492Z,0.80
2018-12-21T05:58:12.641Z,1.10
2018-12-21T06:00:43.500Z,1.10
2018-12-21T06:03:12.665Z,10.17
2018-12-21T06:05:40.825Z,23.93
2018-12-21T06:08:09.543Z,13.90
2018-12-21T06:10:37.970Z,7.07
2018-12-21T06:13:06.096Z,5.00
2018-12-21T06:15:34.040Z,2.90
2018-12-21T06:18:06.857Z,1.90
2018-12-21T06:20:35.398Z,1.20
2018-12-21T06:23:09.473Z,6.30
2018-12-21T06:25:34.453Z,19.60
2018-12-21T06:28:05.879Z,11.03
2018-12-21T06:30:35.177Z,5.00
2018-12-21T06:33:04.970Z,3.23
2018-12-21T06:35:47.274Z,1.23
2018-12-21T06:38:18.577Z,1.20
2018-12-21T06:41:10.422Z,0.90
2018-12-21T06:43:38.358Z,0.87
2018-12-21T06:46:14.149Z,0.93
2018-12-21T06:48:39.623Z,0.80
2018-12-21T06:51:20.677Z,0.80
2018-12-21T06:53:48.716Z,0.80
2018-12-21T06:56:16.569Z,0.83
2018-12-21T06:58:44.407Z,0.80
2018-12-21T07:01:12.419Z,0.80
2018-12-21T07:03:40.780Z,0.80
2018-12-21T07:06:11.459Z,0.60
2018-12-21T07:08:40.712Z,0.70
2018-12-21T07:11:09.338Z,0.73
2018-12-21T07:13:37.228Z,0.73
2018-12-21T07:16:10.180Z,5.77
2018-12-21T07:18:38.591Z,18.87
2018-12-21T07:21:06.987Z,10.27
2018-12-21T07:23:35.092Z,6.50
2018-12-21T07:26:05.814Z,2.57
2018-12-21T07:28:35.315Z,2.30
2018-12-21T07:31:03.863Z,1.27
2018-12-21T07:33:38.867Z,1.40
2018-12-21T07:36:13.990Z,1.43
2018-12-21T07:39:05.658Z,1.00
2018-12-21T07:44:36.105Z,0.97
2018-12-21T07:47:11.728Z,0.80
2018-12-21T07:49:40.096Z,1.13
2018-12-21T07:52:10.853Z,1.00
2018-12-21T07:57:40.346Z,0.93
2018-12-21T08:00:20.128Z,0.93
2018-12-21T08:02:48.596Z,1.20
2018-12-21T08:05:17.612Z,1.97
2018-12-21T08:07:51.783Z,12.20
2018-12-21T08:10:44.891Z,16.07
2018-12-21T08:13:14.359Z,8.70
2018-12-21T08:15:42.405Z,6.10
2018-12-21T08:18:11.754Z,3.93
2018-12-21T08:20:51.632Z,2.70
2018-12-21T08:23:19.732Z,1.40
2018-12-21T08:25:49.269Z,1.27
2018-12-21T08:28:17.339Z,1.13
2018-12-21T08:30:45.378Z,1.40
2018-12-21T08:33:14.417Z,1.00
2018-12-21T08:35:48.088Z,0.83
2018-12-21T08:38:16.293Z,0.80
2018-12-21T08:40:53.000Z,1.10
2018-12-21T08:46:23.361Z,1.10
2018-12-21T08:48:52.803Z,1.20
2018-12-21T08:51:41.899Z,0.87
2018-12-21T08:54:10.844Z,1.00
2018-12-21T08:56:39.005Z,1.03
2018-12-21T08:59:44.637Z,2.07
2018-12-21T09:02:12.563Z,1.83
2018-12-21T09:04:40.386Z,1.43
2018-12-21T09:07:11.377Z,0.97
2018-12-21T09:09:39.305Z,0.90
2018-12-21T09:12:25.950Z,0.97
2018-12-21T09:15:27.610Z,1.20
2018-12-21T09:17:57.076Z,16.87
2018-12-21T09:23:19.325Z,8.27
2018-12-21T09:25:47.728Z,5.60
2018-12-21T09:28:17.272Z,3.63
2018-12-21T09:30:45.833Z,1.73
2018-12-21T09:33:14.109Z,1.50
2018-12-21T09:35:45.161Z,1.30
2018-12-21T09:38:13.058Z,1.17
2018-12-21T09:40:44.441Z,1.23
2018-12-21T09:43:13.409Z,3.10
2018-12-21T09:45:55.414Z,20.00
2018-12-21T09:48:30.232Z,12.57
2018-12-21T09:51:00.582Z,7.90
2018-12-21T09:53:29.172Z,5.10
2018-12-21T09:56:00.978Z,3.10
2018-12-21T09:58:55.288Z,3.10
2018-12-21T10:04:20.664Z,1.30
2018-12-21T10:06:50.211Z,1.43
2018-12-21T10:09:18.321Z,0.83
2018-12-21T10:11:47.416Z,0.60
2018-12-21T10:14:17.479Z,0.60
2018-12-21T10:16:45.605Z,0.60
2018-12-21T10:19:13.390Z,0.53
2018-12-21T10:28:51.863Z,8.60
2018-12-21T10:32:03.964Z,2.30
2018-12-21T10:34:44.341Z,1.20
2018-12-21T10:37:12.384Z,0.90
2018-12-21T10:39:59.889Z,0.70
2018-12-21T10:42:31.555Z,0.90
2018-12-21T10:44:59.631Z,0.70
2018-12-21T10:47:27.554Z,0.97
2018-12-21T10:49:57.838Z,16.40
2018-12-21T10:52:26.337Z,5.80
2018-12-21T10:54:55.355Z,2.30
2018-12-21T10:57:23.097Z,0.90
2018-12-21T10:59:53.105Z,0.60
2018-12-21T11:02:21.059Z,0.60
2018-12-21T11:04:49.846Z,0.70
2018-12-21T11:07:17.922Z,0.70
2018-12-21T11:09:45.751Z,0.60
2018-12-21T11:12:20.293Z,0.70
2018-12-21T11:14:54.566Z,0.50
2018-12-21T11:17:22.543Z,0.60
2018-12-21T11:19:50.515Z,0.67
2018-12-21T11:22:18.298Z,0.50
2018-12-21T11:24:53.696Z,0.70
2018-12-21T11:27:23.590Z,0.70
2018-12-21T11:29:51.562Z,12.90
2018-12-21T11:32:25.752Z,3.60
2018-12-21T11:34:54.941Z,0.80
2018-12-21T11:37:26.372Z,0.50
2018-12-21T11:39:55.615Z,0.53
2018-12-21T11:42:24.677Z,0.57
2018-12-21T11:44:52.722Z,0.60
2018-12-21T11:47:20.709Z,0.70
2018-12-21T11:49:50.357Z,0.50
2018-12-21T11:52:18.675Z,0.50
2018-12-21T11:54:52.917Z,0.60
2018-12-21T11:57:22.143Z,0.63
2018-12-21T11:59:50.772Z,0.50
2018-12-21T12:02:38.447Z,0.50
2018-12-21T12:05:11.098Z,0.50
2018-12-21T12:07:39.330Z,0.60
2018-12-21T12:10:15.476Z,0.70
2018-12-21T12:12:44.520Z,0.60
2018-12-21T12:15:15.394Z,0.50
2018-12-21T12:17:44.655Z,0.60
2018-12-21T12:20:12.577Z,0.60
2018-12-21T12:22:42.323Z,0.60
2018-12-21T12:25:10.410Z,0.50
2018-12-21T12:27:39.049Z,0.80
2018-12-21T12:30:25.688Z,0.60
2018-12-21T12:32:54.560Z,0.50
2018-12-21T12:35:23.949Z,0.50
2018-12-21T12:37:55.807Z,0.70
2018-12-21T12:40:24.654Z,0.53
2018-12-21T12:43:00.735Z,0.60
2018-12-21T12:45:30.294Z,0.60
2018-12-21T12:47:58.675Z,0.70
2018-12-21T12:53:18.990Z,0.60
2018-12-21T12:55:49.473Z,0.60
2018-12-21T12:58:25.035Z,0.67
2018-12-21T13:00:53.484Z,0.60
2018-12-21T13:03:21.686Z,0.60
2018-12-21T13:05:58.292Z,0.50
2018-12-21T13:12:22.657Z,0.50
2018-12-21T13:15:00.311Z,0.80
2018-12-21T13:17:29.505Z,0.70
2018-12-21T13:19:58.034Z,1.20
2018-12-21T13:22:26.664Z,1.17
2018-12-21T13:24:59.351Z,0.70
2018-12-21T13:27:44.516Z,0.63
2018-12-21T13:30:24.230Z,1.13
2018-12-21T13:32:57.603Z,1.23
2018-12-21T13:35:27.027Z,0.90
2018-12-21T13:37:55.882Z,1.37
2018-12-21T13:40:24.653Z,1.27
2018-12-21T13:43:14.986Z,1.57
2018-12-21T13:45:44.729Z,1.20
2018-12-21T13:48:13.052Z,1.33
2018-12-21T13:50:48.475Z,1.20
2018-12-21T13:53:16.560Z,1.30
2018-12-21T13:55:45.701Z,1.40
2018-12-21T13:58:14.341Z,1.40
2018-12-21T14:00:43.773Z,1.70
2018-12-21T14:03:12.021Z,1.70
2018-12-21T14:05:40.211Z,1.60
2018-12-21T14:08:10.366Z,2.03
2018-12-21T14:10:39.185Z,2.00
2018-12-21T14:13:11.947Z,2.60
2018-12-21T14:15:40.656Z,2.03
2018-12-21T14:18:14.281Z,1.97
2018-12-21T14:20:48.445Z,1.70
2018-12-21T14:23:16.383Z,2.17
2018-12-21T14:25:44.622Z,2.50
2018-12-21T14:28:20.821Z,2.40
2018-12-21T14:30:53.001Z,2.30
2018-12-21T14:33:21.534Z,2.33
2018-12-21T14:35:50.899Z,2.17
2018-12-21T14:38:18.875Z,1.90
2018-12-21T14:40:50.642Z,2.70
2018-12-21T14:43:28.114Z,1.93
2018-12-21T14:45:56.983Z,2.40
2018-12-21T14:48:24.818Z,2.30
2018-12-21T14:50:58.038Z,2.50
2018-12-21T14:53:25.890Z,3.00
2018-12-21T14:55:54.222Z,4.10
2018-12-21T14:58:32.478Z,2.67
2018-12-21T15:01:26.343Z,3.80
2018-12-21T15:03:55.456Z,3.37
2018-12-21T15:06:23.561Z,3.97
2018-12-21T15:08:51.614Z,3.13
2018-12-21T15:11:19.858Z,3.47
2018-12-21T15:13:49.454Z,3.83
2018-12-21T15:16:24.969Z,4.60
2018-12-21T15:18:52.975Z,3.70
2018-12-21T15:21:24.568Z,3.90
2018-12-21T15:23:52.455Z,3.43
2018-12-21T15:26:45.327Z,3.07
2018-12-21T15:29:13.499Z,2.50
2018-12-21T15:31:42.205Z,4.30
2018-12-21T15:34:11.257Z,3.37
2018-12-21T15:36:39.275Z,3.53
2018-12-21T15:39:15.690Z,4.10
2018-12-21T15:44:43.048Z,4.30
2018-12-21T15:47:11.096Z,3.47
2018-12-21T15:49:39.826Z,5.40
2018-12-21T15:52:17.738Z,4.43
2018-12-21T15:54:52.715Z,4.87
2018-12-21T15:57:22.821Z,3.73
2018-12-21T15:59:51.137Z,4.57
2018-12-21T16:02:19.126Z,3.70
2018-12-21T16:04:46.993Z,4.30
2018-12-21T16:07:18.468Z,3.87
2018-12-21T16:09:46.468Z,4.63
2018-12-21T16:12:28.615Z,6.10
2018-12-21T16:14:59.964Z,4.77
2018-12-21T16:17:28.007Z,3.40
2018-12-21T16:19:58.268Z,5.53
2018-12-21T16:22:27.354Z,5.70
2018-12-21T16:24:56.269Z,4.33
2018-12-21T16:27:24.403Z,5.80
2018-12-21T16:29:52.817Z,4.80
2018-12-21T16:32:20.700Z,5.30
2018-12-21T16:34:48.547Z,6.33
2018-12-21T16:37:16.409Z,7.57
2018-12-21T16:39:44.285Z,6.33
2018-12-21T16:42:12.018Z,6.50
2018-12-21T16:44:43.375Z,4.63
2018-12-21T16:47:11.277Z,6.50
2018-12-21T16:49:50.345Z,5.13
2018-12-21T16:52:29.068Z,5.40
2018-12-21T16:55:00.857Z,7.73
2018-12-21T16:57:28.848Z,6.80
2018-12-21T16:59:56.712Z,6.60
2018-12-21T17:02:42.537Z,6.87
2018-12-21T17:05:10.440Z,5.53
2018-12-21T17:07:38.204Z,6.50
2018-12-21T17:10:12.077Z,5.80
2018-12-21T17:12:40.939Z,6.97
2018-12-21T17:15:16.853Z,5.17
2018-12-21T17:17:48.168Z,6.17
2018-12-21T17:20:22.866Z,7.13
2018-12-21T17:22:56.965Z,5.83
2018-12-21T17:25:38.945Z,5.70
2018-12-21T17:28:09.151Z,6.70
2018-12-21T17:30:37.015Z,6.60
2018-12-21T17:33:05.142Z,6.37
2018-12-21T17:35:33.089Z,6.27
2018-12-21T17:38:00.976Z,7.13
2018-12-21T17:40:29.621Z,6.70
2018-12-21T17:42:57.425Z,7.73
2018-12-21T17:45:25.581Z,7.27
2018-12-21T17:47:53.650Z,7.10
2018-12-21T17:50:27.576Z,6.43
2018-12-21T17:52:56.388Z,6.73
2018-12-21T17:55:25.702Z,6.90
2018-12-21T17:57:55.429Z,5.90
2018-12-21T18:00:24.421Z,5.73
2018-12-21T18:02:54.555Z,6.67
2018-12-21T18:05:23.808Z,5.30
2018-12-21T18:07:56.384Z,5.50
2018-12-21T18:10:31.870Z,6.80
2018-12-21T18:13:05.054Z,6.30
2018-12-21T18:15:33.290Z,6.73
2018-12-21T18:18:01.150Z,6.23
2018-12-21T18:20:29.772Z,7.70
2018-12-21T18:22:58.739Z,7.80
2018-12-21T18:25:28.554Z,7.20
2018-12-21T18:27:59.292Z,8.07
2018-12-21T18:30:43.279Z,6.33
2018-12-21T18:33:14.616Z,5.30
2018-12-21T18:35:45.110Z,5.63
2018-12-21T18:38:21.402Z,7.30
2018-12-21T18:41:06.074Z,7.70
2018-12-21T18:43:33.801Z,6.80
2018-12-21T18:46:02.258Z,7.97
2018-12-21T18:48:30.180Z,6.27
2018-12-21T18:51:02.328Z,6.83
2018-12-21T18:53:30.196Z,6.77
2018-12-21T18:55:58.107Z,6.07
2018-12-21T18:58:27.068Z,6.70
2018-12-21T19:00:54.837Z,6.83
2018-12-21T19:04:33.419Z,5.90
2018-12-21T19:07:01.683Z,7.60
2018-12-21T19:09:30.005Z,6.37
2018-12-21T19:11:58.850Z,5.70
2018-12-21T19:14:28.876Z,30.97
2018-12-21T19:16:56.741Z,11.30
2018-12-21T19:19:24.470Z,6.83
2018-12-21T19:21:54.405Z,5.67
2018-12-21T19:24:28.732Z,6.23
2018-12-21T19:27:08.964Z,5.53
2018-12-21T19:29:37.241Z,6.87
2018-12-21T19:32:08.722Z,5.43
2018-12-21T19:34:36.519Z,5.87
2018-12-21T19:37:04.521Z,6.00
2018-12-21T19:39:35.370Z,5.60
2018-12-21T19:42:06.037Z,6.20
2018-12-21T19:44:34.615Z,7.50
2018-12-21T19:47:27.720Z,5.57
2018-12-21T19:50:00.532Z,5.93
2018-12-21T19:52:29.249Z,6.43
2018-12-21T19:55:04.612Z,5.70
2018-12-21T19:57:33.420Z,6.37
2018-12-21T20:00:02.412Z,5.17
2018-12-21T20:02:33.653Z,6.27
2018-12-21T20:05:02.704Z,6.13
2018-12-21T20:07:33.651Z,5.93
2018-12-21T20:10:03.693Z,5.93
2018-12-21T20:12:35.207Z,5.37
2018-12-21T20:15:09.439Z,6.60
2018-12-21T20:17:37.766Z,5.43
2018-12-21T20:20:10.845Z,5.83
2018-12-21T20:22:38.837Z,7.00
2018-12-21T20:25:09.322Z,20.03
2018-12-21T20:27:38.849Z,8.47
2018-12-21T20:30:18.757Z,6.10
2018-12-21T20:32:49.075Z,6.90
2018-12-21T20:35:17.457Z,6.20
2018-12-21T20:37:49.577Z,5.97
2018-12-21T20:40:17.392Z,7.23
2018-12-21T20:42:46.715Z,7.10
2018-12-21T20:45:14.645Z,5.97
2018-12-21T20:47:42.872Z,5.83
2018-12-21T20:50:14.247Z,6.33
2018-12-21T20:52:43.112Z,6.90
2018-12-21T20:55:10.915Z,6.10
2018-12-21T20:57:39.802Z,6.10
2018-12-21T21:00:29.980Z,7.33
2018-12-21T21:02:59.177Z,8.60
2018-12-21T21:05:28.503Z,6.10
2018-12-21T21:07:58.086Z,5.30
2018-12-21T21:10:26.626Z,5.63
2018-12-21T21:12:54.773Z,6.47
2018-12-21T21:15:22.923Z,6.10
2018-12-21T21:17:50.901Z,5.60
2018-12-21T21:20:19.727Z,5.87
2018-12-21T21:22:47.601Z,6.43
2018-12-21T21:25:15.861Z,6.30
2018-12-21T21:27:43.877Z,6.43
2018-12-21T21:30:18.842Z,6.57
2018-12-21T21:32:46.640Z,7.70
2018-12-21T21:35:14.319Z,5.90
2018-12-21T21:37:42.190Z,5.80
2018-12-21T21:40:16.471Z,6.60
2018-12-21T21:42:45.889Z,5.93
2018-12-21T21:45:37.035Z,7.13
2018-12-21T21:48:08.512Z,7.23
2018-12-21T21:50:40.465Z,6.83
2018-12-21T21:53:10.264Z,6.67
2018-12-21T21:55:38.290Z,5.97
2018-12-21T21:58:09.192Z,6.10
2018-12-21T22:00:37.563Z,7.13
2018-12-21T22:03:07.159Z,5.57
2018-12-21T22:05:35.378Z,6.27
2018-12-21T22:08:05.171Z,6.03
2018-12-21T22:10:33.979Z,5.97
2018-12-21T22:13:01.815Z,5.37
2018-12-21T22:15:30.283Z,6.47
2018-12-21T22:17:57.973Z,5.83
2018-12-21T22:20:26.158Z,7.13
2018-12-21T22:22:54.136Z,7.13
2018-12-21T22:25:22.797Z,6.50
2018-12-21T22:27:50.685Z,5.40
2018-12-21T22:30:19.714Z,5.37
2018-12-21T22:32:47.603Z,6.33
2018-12-21T22:35:16.026Z,5.87
2018-12-21T22:37:43.946Z,5.43
2018-12-21T22:40:11.927Z,7.93
2018-12-21T22:42:39.802Z,6.73
2018-12-21T22:45:12.399Z,6.43
2018-12-21T22:47:40.295Z,6.23
2018-12-21T22:50:10.383Z,7.73
2018-12-21T22:52:38.230Z,6.93
2018-12-21T22:55:07.701Z,7.27
2018-12-21T22:57:35.941Z,6.23
2018-12-21T23:00:18.573Z,7.00
2018-12-21T23:02:46.364Z,7.07
2018-12-21T23:05:14.376Z,5.57
2018-12-21T23:07:42.180Z,5.97
2018-12-21T23:10:10.978Z,5.77
2018-12-21T23:12:40.537Z,5.43
2018-12-21T23:15:12.837Z,5.80
2018-12-21T23:17:41.286Z,6.70
2018-12-21T23:20:10.830Z,5.93
2018-12-21T23:22:38.664Z,6.20
2018-12-21T23:25:07.043Z,5.10
2018-12-21T23:27:35.330Z,6.03
2018-12-21T23:30:11.118Z,5.60
2018-12-21T23:32:41.550Z,5.97
2018-12-21T23:35:09.367Z,5.00
2018-12-21T23:37:37.366Z,6.47
2018-12-21T23:40:08.970Z,6.50
2018-12-21T23:42:37.654Z,7.00
2018-12-21T23:45:12.977Z,6.20
2018-12-21T23:47:40.889Z,7.20
2018-12-21T23:50:10.787Z,9.03
2018-12-21T23:52:38.868Z,8.07
2018-12-21T23:55:06.728Z,6.00
2018-12-21T23:57:34.489Z,7.97
